sensor_id;sensor_type;location;lat;lon;timestamp;pressure;altitude;pressure_sealevel;temperature
13570;BMP180;6856;51.460;7.158;2023-01-24T00:01:53;102443.00;;;6.70
13570;BMP180;6856;51.460;7.158;2023-01-24T00:04:28;102456.00;;;6.70
13570;BMP180;6856;51.460;7.158;2023-01-24T00:07:02;102456.00;;;6.70
13570;BMP180;6856;51.460;7.158;2023-01-24T00:09:35;102458.00;;;6.70
13570;BMP180;6856;51.460;7.158;2023-01-24T00:12:09;102451.00;;;6.70
13570;BMP180;6856;51.460;7.158;2023-01-24T00:14:43;102451.00;;;6.70
13570;BMP180;6856;51.460;7.158;2023-01-24T00:17:17;102444.00;;;6.70
13570;BMP180;6856;51.460;7.158;2023-01-24T00:19:52;102446.00;;;6.70
13570;BMP180;6856;51.460;7.158;2023-01-24T00:22:26;102447.00;;;6.70
13570;BMP180;6856;51.460;7.158;2023-01-24T00:24:59;102454.00;;;6.70
13570;BMP180;6856;51.460;7.158;2023-01-24T00:27:33;102466.00;;;6.70
13570;BMP180;6856;51.460;7.158;2023-01-24T00:30:09;102447.00;;;6.60
13570;BMP180;6856;51.460;7.158;2023-01-24T00:32:43;102447.00;;;6.60
13570;BMP180;6856;51.460;7.158;2023-01-24T00:35:18;102445.00;;;6.60
13570;BMP180;6856;51.460;7.158;2023-01-24T00:37:52;102439.00;;;6.60
13570;BMP180;6856;51.460;7.158;2023-01-24T00:40:28;102442.00;;;6.60
13570;BMP180;6856;51.460;7.158;2023-01-24T00:43:02;102446.00;;;6.60
13570;BMP180;6856;51.460;7.158;2023-01-24T00:45:36;102440.00;;;6.60
13570;BMP180;6856;51.460;7.158;2023-01-24T00:48:14;102447.00;;;6.60
13570;BMP180;6856;51.460;7.158;2023-01-24T00:50:49;102437.00;;;6.60
13570;BMP180;6856;51.460;7.158;2023-01-24T00:53:23;102437.00;;;6.60
13570;BMP180;6856;51.460;7.158;2023-01-24T00:55:58;102433.00;;;6.60
13570;BMP180;6856;51.460;7.158;2023-01-24T00:58:32;102419.00;;;6.60
13570;BMP180;6856;51.460;7.158;2023-01-24T01:01:06;102434.00;;;6.60
13570;BMP180;6856;51.460;7.158;2023-01-24T01:03:40;102435.00;;;6.60
13570;BMP180;6856;51.460;7.158;2023-01-24T01:06:16;102429.00;;;6.60
13570;BMP180;6856;51.460;7.158;2023-01-24T01:08:50;102424.00;;;6.60
13570;BMP180;6856;51.460;7.158;2023-01-24T01:11:24;102408.00;;;6.60
13570;BMP180;6856;51.460;7.158;2023-01-24T01:13:58;102443.00;;;6.60
13570;BMP180;6856;51.460;7.158;2023-01-24T01:16:31;102441.00;;;6.60
13570;BMP180;6856;51.460;7.158;2023-01-24T01:19:10;102426.00;;;6.60
13570;BMP180;6856;51.460;7.158;2023-01-24T01:21:46;102445.00;;;6.60
13570;BMP180;6856;51.460;7.158;2023-01-24T01:24:21;102441.00;;;6.60
13570;BMP180;6856;51.460;7.158;2023-01-24T01:26:57;102444.00;;;6.60
13570;BMP180;6856;51.460;7.158;2023-01-24T01:29:33;102455.00;;;6.60
13570;BMP180;6856;51.460;7.158;2023-01-24T01:32:06;102456.00;;;6.60
13570;BMP180;6856;51.460;7.158;2023-01-24T01:34:40;102458.00;;;6.60
13570;BMP180;6856;51.460;7.158;2023-01-24T01:37:15;102454.00;;;6.60
13570;BMP180;6856;51.460;7.158;2023-01-24T01:39:49;102459.00;;;6.60
13570;BMP180;6856;51.460;7.158;2023-01-24T01:42:22;102456.00;;;6.60
13570;BMP180;6856;51.460;7.158;2023-01-24T01:48:24;102458.00;;;6.60
13570;BMP180;6856;51.460;7.158;2023-01-24T01:51:09;102459.00;;;6.60
13570;BMP180;6856;51.460;7.158;2023-01-24T01:53:50;102454.00;;;6.60
13570;BMP180;6856;51.460;7.158;2023-01-24T01:56:30;102453.00;;;6.50
13570;BMP180;6856;51.460;7.158;2023-01-24T01:59:11;102454.00;;;6.50
13570;BMP180;6856;51.460;7.158;2023-01-24T02:01:50;102456.00;;;6.50
13570;BMP180;6856;51.460;7.158;2023-01-24T02:04:31;102459.00;;;6.50
13570;BMP180;6856;51.460;7.158;2023-01-24T02:07:12;102427.00;;;6.50
13570;BMP180;6856;51.460;7.158;2023-01-24T02:09:52;102452.00;;;6.50
13570;BMP180;6856;51.460;7.158;2023-01-24T02:12:32;102442.00;;;6.40
13570;BMP180;6856;51.460;7.158;2023-01-24T02:15:11;102443.00;;;6.40
13570;BMP180;6856;51.460;7.158;2023-01-24T02:18:04;102450.00;;;6.40
13570;BMP180;6856;51.460;7.158;2023-01-24T02:20:41;102442.00;;;6.40
13570;BMP180;6856;51.460;7.158;2023-01-24T02:23:31;102452.00;;;6.50
13570;BMP180;6856;51.460;7.158;2023-01-24T02:26:12;102448.00;;;6.40
13570;BMP180;6856;51.460;7.158;2023-01-24T02:28:51;102447.00;;;6.50
13570;BMP180;6856;51.460;7.158;2023-01-24T02:31:27;102447.00;;;6.50
13570;BMP180;6856;51.460;7.158;2023-01-24T02:34:00;102442.00;;;6.40
13570;BMP180;6856;51.460;7.158;2023-01-24T02:36:36;102432.00;;;6.40
13570;BMP180;6856;51.460;7.158;2023-01-24T02:39:16;102426.00;;;6.40
13570;BMP180;6856;51.460;7.158;2023-01-24T02:41:58;102416.00;;;6.40
13570;BMP180;6856;51.460;7.158;2023-01-24T02:44:40;102424.00;;;6.40
13570;BMP180;6856;51.460;7.158;2023-01-24T02:47:16;102418.00;;;6.40
13570;BMP180;6856;51.460;7.158;2023-01-24T02:49:49;102415.00;;;6.40
13570;BMP180;6856;51.460;7.158;2023-01-24T02:52:24;102426.00;;;6.40
13570;BMP180;6856;51.460;7.158;2023-01-24T02:55:15;102425.00;;;6.40
13570;BMP180;6856;51.460;7.158;2023-01-24T02:57:50;102436.00;;;6.40
13570;BMP180;6856;51.460;7.158;2023-01-24T03:00:40;102427.00;;;6.40
13570;BMP180;6856;51.460;7.158;2023-01-24T03:03:14;102426.00;;;6.30
13570;BMP180;6856;51.460;7.158;2023-01-24T03:05:48;102430.00;;;6.40
13570;BMP180;6856;51.460;7.158;2023-01-24T03:08:32;102430.00;;;6.40
13570;BMP180;6856;51.460;7.158;2023-01-24T03:11:07;102421.00;;;6.40
13570;BMP180;6856;51.460;7.158;2023-01-24T03:13:43;102403.00;;;6.40
13570;BMP180;6856;51.460;7.158;2023-01-24T03:16:35;102417.00;;;6.30
13570;BMP180;6856;51.460;7.158;2023-01-24T03:19:26;102400.00;;;6.30
13570;BMP180;6856;51.460;7.158;2023-01-24T03:22:17;102409.00;;;6.30
13570;BMP180;6856;51.460;7.158;2023-01-24T03:25:09;102411.00;;;6.30
13570;BMP180;6856;51.460;7.158;2023-01-24T03:28:03;102400.00;;;6.30
13570;BMP180;6856;51.460;7.158;2023-01-24T03:30:56;102390.00;;;6.30
13570;BMP180;6856;51.460;7.158;2023-01-24T03:33:47;102412.00;;;6.30
13570;BMP180;6856;51.460;7.158;2023-01-24T03:36:38;102415.00;;;6.30
13570;BMP180;6856;51.460;7.158;2023-01-24T03:39:12;102415.00;;;6.20
13570;BMP180;6856;51.460;7.158;2023-01-24T03:42:03;102416.00;;;6.30
13570;BMP180;6856;51.460;7.158;2023-01-24T03:44:37;102420.00;;;6.30
13570;BMP180;6856;51.460;7.158;2023-01-24T03:47:12;102418.00;;;6.30
13570;BMP180;6856;51.460;7.158;2023-01-24T03:49:46;102427.00;;;6.30
13570;BMP180;6856;51.460;7.158;2023-01-24T03:52:37;102418.00;;;6.30
13570;BMP180;6856;51.460;7.158;2023-01-24T03:55:12;102422.00;;;6.30
13570;BMP180;6856;51.460;7.158;2023-01-24T03:57:45;102418.00;;;6.30
13570;BMP180;6856;51.460;7.158;2023-01-24T04:00:20;102415.00;;;6.30
13570;BMP180;6856;51.460;7.158;2023-01-24T04:02:55;102409.00;;;6.30
13570;BMP180;6856;51.460;7.158;2023-01-24T04:05:28;102421.00;;;6.40
13570;BMP180;6856;51.460;7.158;2023-01-24T04:08:03;102417.00;;;6.40
13570;BMP180;6856;51.460;7.158;2023-01-24T04:10:37;102414.00;;;6.40
13570;BMP180;6856;51.460;7.158;2023-01-24T04:13:12;102414.00;;;6.30
13570;BMP180;6856;51.460;7.158;2023-01-24T04:15:46;102410.00;;;6.30
13570;BMP180;6856;51.460;7.158;2023-01-24T04:18:21;102387.00;;;6.40
13570;BMP180;6856;51.460;7.158;2023-01-24T04:20:54;102407.00;;;6.40
13570;BMP180;6856;51.460;7.158;2023-01-24T04:23:29;102416.00;;;6.40
13570;BMP180;6856;51.460;7.158;2023-01-24T04:26:03;102405.00;;;6.40
13570;BMP180;6856;51.460;7.158;2023-01-24T04:28:37;102407.00;;;6.40
13570;BMP180;6856;51.460;7.158;2023-01-24T04:31:11;102397.00;;;6.40
13570;BMP180;6856;51.460;7.158;2023-01-24T04:33:46;102399.00;;;6.40
13570;BMP180;6856;51.460;7.158;2023-01-24T04:36:20;102404.00;;;6.40
13570;BMP180;6856;51.460;7.158;2023-01-24T04:38:55;102411.00;;;6.40
13570;BMP180;6856;51.460;7.158;2023-01-24T04:41:29;102412.00;;;6.40
13570;BMP180;6856;51.460;7.158;2023-01-24T04:44:03;102425.00;;;6.40
13570;BMP180;6856;51.460;7.158;2023-01-24T04:46:38;102421.00;;;6.40
13570;BMP180;6856;51.460;7.158;2023-01-24T04:49:13;102422.00;;;6.40
13570;BMP180;6856;51.460;7.158;2023-01-24T04:51:47;102423.00;;;6.40
13570;BMP180;6856;51.460;7.158;2023-01-24T04:54:23;102423.00;;;6.40
13570;BMP180;6856;51.460;7.158;2023-01-24T04:56:57;102421.00;;;6.40
13570;BMP180;6856;51.460;7.158;2023-01-24T04:59:31;102419.00;;;6.40
13570;BMP180;6856;51.460;7.158;2023-01-24T05:02:05;102418.00;;;6.40
13570;BMP180;6856;51.460;7.158;2023-01-24T05:04:41;102412.00;;;6.40
13570;BMP180;6856;51.460;7.158;2023-01-24T05:07:15;102418.00;;;6.40
13570;BMP180;6856;51.460;7.158;2023-01-24T05:09:51;102418.00;;;6.40
13570;BMP180;6856;51.460;7.158;2023-01-24T05:12:25;102425.00;;;6.30
13570;BMP180;6856;51.460;7.158;2023-01-24T05:14:58;102426.00;;;6.40
13570;BMP180;6856;51.460;7.158;2023-01-24T05:17:32;102431.00;;;6.40
13570;BMP180;6856;51.460;7.158;2023-01-24T05:20:12;102425.00;;;6.40
13570;BMP180;6856;51.460;7.158;2023-01-24T05:22:45;102426.00;;;6.40
13570;BMP180;6856;51.460;7.158;2023-01-24T05:25:21;102431.00;;;6.40
13570;BMP180;6856;51.460;7.158;2023-01-24T05:27:55;102438.00;;;6.40
13570;BMP180;6856;51.460;7.158;2023-01-24T05:30:28;102400.00;;;6.40
13570;BMP180;6856;51.460;7.158;2023-01-24T05:33:02;102430.00;;;6.40
13570;BMP180;6856;51.460;7.158;2023-01-24T05:35:37;102430.00;;;6.40
13570;BMP180;6856;51.460;7.158;2023-01-24T05:38:13;102434.00;;;6.30
13570;BMP180;6856;51.460;7.158;2023-01-24T05:40:47;102437.00;;;6.30
13570;BMP180;6856;51.460;7.158;2023-01-24T05:43:20;102430.00;;;6.30
13570;BMP180;6856;51.460;7.158;2023-01-24T05:45:59;102437.00;;;6.30
13570;BMP180;6856;51.460;7.158;2023-01-24T05:48:33;102437.00;;;6.30
13570;BMP180;6856;51.460;7.158;2023-01-24T05:51:13;102441.00;;;6.30
13570;BMP180;6856;51.460;7.158;2023-01-24T05:53:47;102442.00;;;6.30
13570;BMP180;6856;51.460;7.158;2023-01-24T05:56:21;102443.00;;;6.20
13570;BMP180;6856;51.460;7.158;2023-01-24T05:58:55;102451.00;;;6.20
13570;BMP180;6856;51.460;7.158;2023-01-24T06:01:28;102456.00;;;6.20
13570;BMP180;6856;51.460;7.158;2023-01-24T06:04:02;102457.00;;;6.20
13570;BMP180;6856;51.460;7.158;2023-01-24T06:06:39;102462.00;;;6.20
13570;BMP180;6856;51.460;7.158;2023-01-24T06:09:13;102458.00;;;6.20
13570;BMP180;6856;51.460;7.158;2023-01-24T06:11:46;102462.00;;;6.20
13570;BMP180;6856;51.460;7.158;2023-01-24T06:14:20;102458.00;;;6.20
13570;BMP180;6856;51.460;7.158;2023-01-24T06:16:54;102465.00;;;6.20
13570;BMP180;6856;51.460;7.158;2023-01-24T06:19:31;102461.00;;;6.20
13570;BMP180;6856;51.460;7.158;2023-01-24T06:22:16;102471.00;;;6.20
13570;BMP180;6856;51.460;7.158;2023-01-24T06:24:55;102470.00;;;6.20
13570;BMP180;6856;51.460;7.158;2023-01-24T06:27:29;102479.00;;;6.20
13570;BMP180;6856;51.460;7.158;2023-01-24T06:30:08;102484.00;;;6.20
13570;BMP180;6856;51.460;7.158;2023-01-24T06:33:08;102485.00;;;6.20
13570;BMP180;6856;51.460;7.158;2023-01-24T06:38:54;102490.00;;;6.10
13570;BMP180;6856;51.460;7.158;2023-01-24T06:41:30;102481.00;;;6.10
13570;BMP180;6856;51.460;7.158;2023-01-24T06:44:04;102494.00;;;6.20
13570;BMP180;6856;51.460;7.158;2023-01-24T06:46:39;102492.00;;;6.20
13570;BMP180;6856;51.460;7.158;2023-01-24T06:49:14;102489.00;;;6.20
13570;BMP180;6856;51.460;7.158;2023-01-24T06:51:51;102498.00;;;6.20
13570;BMP180;6856;51.460;7.158;2023-01-24T06:54:26;102504.00;;;6.20
13570;BMP180;6856;51.460;7.158;2023-01-24T06:57:01;102502.00;;;6.20
13570;BMP180;6856;51.460;7.158;2023-01-24T06:59:35;102510.00;;;6.20
13570;BMP180;6856;51.460;7.158;2023-01-24T07:02:10;102514.00;;;6.20
13570;BMP180;6856;51.460;7.158;2023-01-24T07:04:44;102507.00;;;6.20
13570;BMP180;6856;51.460;7.158;2023-01-24T07:07:17;102515.00;;;6.20
13570;BMP180;6856;51.460;7.158;2023-01-24T07:09:53;102507.00;;;6.20
13570;BMP180;6856;51.460;7.158;2023-01-24T07:12:27;102518.00;;;6.20
13570;BMP180;6856;51.460;7.158;2023-01-24T07:15:00;102515.00;;;6.20
13570;BMP180;6856;51.460;7.158;2023-01-24T07:17:35;102518.00;;;6.20
13570;BMP180;6856;51.460;7.158;2023-01-24T07:20:11;102507.00;;;6.20
13570;BMP180;6856;51.460;7.158;2023-01-24T07:22:46;102495.00;;;6.20
13570;BMP180;6856;51.460;7.158;2023-01-24T07:25:24;102517.00;;;6.20
13570;BMP180;6856;51.460;7.158;2023-01-24T07:27:59;102510.00;;;6.20
13570;BMP180;6856;51.460;7.158;2023-01-24T07:30:33;102514.00;;;6.20
13570;BMP180;6856;51.460;7.158;2023-01-24T07:33:07;102521.00;;;6.20
13570;BMP180;6856;51.460;7.158;2023-01-24T07:35:41;102523.00;;;6.20
13570;BMP180;6856;51.460;7.158;2023-01-24T07:38:16;102522.00;;;6.20
13570;BMP180;6856;51.460;7.158;2023-01-24T07:40:51;102524.00;;;6.20
13570;BMP180;6856;51.460;7.158;2023-01-24T07:43:25;102528.00;;;6.20
13570;BMP180;6856;51.460;7.158;2023-01-24T07:45:58;102537.00;;;6.20
13570;BMP180;6856;51.460;7.158;2023-01-24T07:48:32;102532.00;;;6.10
13570;BMP180;6856;51.460;7.158;2023-01-24T07:51:07;102541.00;;;6.10
13570;BMP180;6856;51.460;7.158;2023-01-24T07:53:41;102536.00;;;6.10
13570;BMP180;6856;51.460;7.158;2023-01-24T07:56:16;102533.00;;;6.10
13570;BMP180;6856;51.460;7.158;2023-01-24T07:58:57;102538.00;;;6.10
13570;BMP180;6856;51.460;7.158;2023-01-24T08:01:31;102538.00;;;6.20
13570;BMP180;6856;51.460;7.158;2023-01-24T08:04:05;102539.00;;;6.20
13570;BMP180;6856;51.460;7.158;2023-01-24T08:06:40;102546.00;;;6.20
13570;BMP180;6856;51.460;7.158;2023-01-24T08:09:34;102545.00;;;6.20
13570;BMP180;6856;51.460;7.158;2023-01-24T08:12:09;102547.00;;;6.20
13570;BMP180;6856;51.460;7.158;2023-01-24T08:14:43;102533.00;;;6.20
13570;BMP180;6856;51.460;7.158;2023-01-24T08:17:18;102551.00;;;6.20
13570;BMP180;6856;51.460;7.158;2023-01-24T08:19:51;102552.00;;;6.20
13570;BMP180;6856;51.460;7.158;2023-01-24T08:22:28;102545.00;;;6.20
13570;BMP180;6856;51.460;7.158;2023-01-24T08:25:02;102550.00;;;6.20
13570;BMP180;6856;51.460;7.158;2023-01-24T08:27:40;102554.00;;;6.20
13570;BMP180;6856;51.460;7.158;2023-01-24T08:30:16;102551.00;;;6.20
13570;BMP180;6856;51.460;7.158;2023-01-24T08:32:59;102561.00;;;6.20
13570;BMP180;6856;51.460;7.158;2023-01-24T08:35:33;102551.00;;;6.20
13570;BMP180;6856;51.460;7.158;2023-01-24T08:38:10;102562.00;;;6.20
13570;BMP180;6856;51.460;7.158;2023-01-24T08:40:44;102567.00;;;6.20
13570;BMP180;6856;51.460;7.158;2023-01-24T08:43:23;102564.00;;;6.20
13570;BMP180;6856;51.460;7.158;2023-01-24T08:45:58;102566.00;;;6.20
13570;BMP180;6856;51.460;7.158;2023-01-24T08:48:32;102562.00;;;6.20
13570;BMP180;6856;51.460;7.158;2023-01-24T08:51:05;102576.00;;;6.20
13570;BMP180;6856;51.460;7.158;2023-01-24T08:53:40;102582.00;;;6.20
13570;BMP180;6856;51.460;7.158;2023-01-24T08:56:14;102570.00;;;6.20
13570;BMP180;6856;51.460;7.158;2023-01-24T08:58:49;102580.00;;;6.20
13570;BMP180;6856;51.460;7.158;2023-01-24T09:01:23;102583.00;;;6.20
13570;BMP180;6856;51.460;7.158;2023-01-24T09:03:58;102582.00;;;6.20
13570;BMP180;6856;51.460;7.158;2023-01-24T09:06:32;102582.00;;;6.30
13570;BMP180;6856;51.460;7.158;2023-01-24T09:09:06;102583.00;;;6.30
13570;BMP180;6856;51.460;7.158;2023-01-24T09:11:40;102582.00;;;6.30
13570;BMP180;6856;51.460;7.158;2023-01-24T09:14:16;102572.00;;;6.30
13570;BMP180;6856;51.460;7.158;2023-01-24T09:16:50;102584.00;;;6.30
13570;BMP180;6856;51.460;7.158;2023-01-24T09:19:24;102582.00;;;6.30
13570;BMP180;6856;51.460;7.158;2023-01-24T09:21:58;102571.00;;;6.30
13570;BMP180;6856;51.460;7.158;2023-01-24T09:24:32;102592.00;;;6.30
13570;BMP180;6856;51.460;7.158;2023-01-24T09:27:06;102593.00;;;6.30
13570;BMP180;6856;51.460;7.158;2023-01-24T09:29:41;102586.00;;;6.30
13570;BMP180;6856;51.460;7.158;2023-01-24T09:32:15;102594.00;;;6.40
13570;BMP180;6856;51.460;7.158;2023-01-24T09:34:49;102594.00;;;6.40
13570;BMP180;6856;51.460;7.158;2023-01-24T09:37:23;102591.00;;;6.40
13570;BMP180;6856;51.460;7.158;2023-01-24T09:39:56;102607.00;;;6.40
13570;BMP180;6856;51.460;7.158;2023-01-24T09:42:39;102611.00;;;6.50
13570;BMP180;6856;51.460;7.158;2023-01-24T09:45:27;102603.00;;;6.50
13570;BMP180;6856;51.460;7.158;2023-01-24T09:48:06;102605.00;;;6.50
13570;BMP180;6856;51.460;7.158;2023-01-24T09:50:46;102606.00;;;6.50
13570;BMP180;6856;51.460;7.158;2023-01-24T09:53:26;102601.00;;;6.50
13570;BMP180;6856;51.460;7.158;2023-01-24T09:56:04;102601.00;;;6.50
13570;BMP180;6856;51.460;7.158;2023-01-24T09:59:02;102609.00;;;6.50
13570;BMP180;6856;51.460;7.158;2023-01-24T10:01:47;102608.00;;;6.60
13570;BMP180;6856;51.460;7.158;2023-01-24T10:04:32;102610.00;;;6.60
13570;BMP180;6856;51.460;7.158;2023-01-24T10:07:44;102604.00;;;6.60
13570;BMP180;6856;51.460;7.158;2023-01-24T10:10:40;102599.00;;;6.60
13570;BMP180;6856;51.460;7.158;2023-01-24T10:17:44;102608.00;;;6.60
13570;BMP180;6856;51.460;7.158;2023-01-24T10:20:45;102607.00;;;6.60
13570;BMP180;6856;51.460;7.158;2023-01-24T10:23:25;102612.00;;;6.60
13570;BMP180;6856;51.460;7.158;2023-01-24T10:26:05;102608.00;;;6.60
13570;BMP180;6856;51.460;7.158;2023-01-24T10:28:50;102606.00;;;6.60
13570;BMP180;6856;51.460;7.158;2023-01-24T10:31:28;102605.00;;;6.60
13570;BMP180;6856;51.460;7.158;2023-01-24T10:34:10;102602.00;;;6.60
13570;BMP180;6856;51.460;7.158;2023-01-24T10:36:52;102611.00;;;6.70
13570;BMP180;6856;51.460;7.158;2023-01-24T10:39:30;102598.00;;;6.70
13570;BMP180;6856;51.460;7.158;2023-01-24T10:42:18;102605.00;;;6.70
13570;BMP180;6856;51.460;7.158;2023-01-24T10:44:58;102607.00;;;6.70
13570;BMP180;6856;51.460;7.158;2023-01-24T10:47:47;102600.00;;;6.70
13570;BMP180;6856;51.460;7.158;2023-01-24T10:50:24;102602.00;;;6.70
13570;BMP180;6856;51.460;7.158;2023-01-24T10:53:22;102604.00;;;6.70
13570;BMP180;6856;51.460;7.158;2023-01-24T10:56:04;102598.00;;;6.70
13570;BMP180;6856;51.460;7.158;2023-01-24T10:58:42;102597.00;;;6.80
13570;BMP180;6856;51.460;7.158;2023-01-24T11:01:20;102590.00;;;6.80
13570;BMP180;6856;51.460;7.158;2023-01-24T11:03:54;102598.00;;;6.80
13570;BMP180;6856;51.460;7.158;2023-01-24T11:06:36;102596.00;;;6.80
13570;BMP180;6856;51.460;7.158;2023-01-24T11:09:13;102595.00;;;6.90
13570;BMP180;6856;51.460;7.158;2023-01-24T11:11:50;102586.00;;;6.90
13570;BMP180;6856;51.460;7.158;2023-01-24T11:14:27;102580.00;;;6.90
13570;BMP180;6856;51.460;7.158;2023-01-24T11:17:03;102574.00;;;6.90
13570;BMP180;6856;51.460;7.158;2023-01-24T11:19:40;102585.00;;;7.00
13570;BMP180;6856;51.460;7.158;2023-01-24T11:22:24;102583.00;;;7.00
13570;BMP180;6856;51.460;7.158;2023-01-24T11:25:01;102588.00;;;7.00
13570;BMP180;6856;51.460;7.158;2023-01-24T11:27:45;102579.00;;;7.00
13570;BMP180;6856;51.460;7.158;2023-01-24T11:30:21;102588.00;;;7.00
13570;BMP180;6856;51.460;7.158;2023-01-24T11:36:40;102582.00;;;7.00
13570;BMP180;6856;51.460;7.158;2023-01-24T11:39:25;102580.00;;;7.00
13570;BMP180;6856;51.460;7.158;2023-01-24T11:42:16;102574.00;;;7.00
13570;BMP180;6856;51.460;7.158;2023-01-24T11:45:18;102566.00;;;7.10
13570;BMP180;6856;51.460;7.158;2023-01-24T11:48:08;102568.00;;;7.10
13570;BMP180;6856;51.460;7.158;2023-01-24T11:51:00;102572.00;;;7.10
13570;BMP180;6856;51.460;7.158;2023-01-24T11:54:10;102578.00;;;7.10
13570;BMP180;6856;51.460;7.158;2023-01-24T11:56:59;102572.00;;;7.10
13570;BMP180;6856;51.460;7.158;2023-01-24T11:59:55;102566.00;;;7.20
13570;BMP180;6856;51.460;7.158;2023-01-24T12:02:59;102564.00;;;7.20
13570;BMP180;6856;51.460;7.158;2023-01-24T12:05:59;102558.00;;;7.20
13570;BMP180;6856;51.460;7.158;2023-01-24T12:09:13;102555.00;;;7.20
13570;BMP180;6856;51.460;7.158;2023-01-24T12:12:02;102547.00;;;7.20
13570;BMP180;6856;51.460;7.158;2023-01-24T12:15:09;102545.00;;;7.20
13570;BMP180;6856;51.460;7.158;2023-01-24T12:18:04;102541.00;;;7.20
13570;BMP180;6856;51.460;7.158;2023-01-24T12:20:58;102524.00;;;7.20
13570;BMP180;6856;51.460;7.158;2023-01-24T12:23:45;102530.00;;;7.20
13570;BMP180;6856;51.460;7.158;2023-01-24T12:26:27;102528.00;;;7.20
13570;BMP180;6856;51.460;7.158;2023-01-24T12:29:12;102523.00;;;7.20
13570;BMP180;6856;51.460;7.158;2023-01-24T12:31:54;102523.00;;;7.20
13570;BMP180;6856;51.460;7.158;2023-01-24T12:34:43;102516.00;;;7.30
13570;BMP180;6856;51.460;7.158;2023-01-24T12:37:28;102519.00;;;7.30
13570;BMP180;6856;51.460;7.158;2023-01-24T12:40:16;102508.00;;;7.30
13570;BMP180;6856;51.460;7.158;2023-01-24T12:42:58;102505.00;;;7.30
13570;BMP180;6856;51.460;7.158;2023-01-24T12:45:44;102506.00;;;7.30
13570;BMP180;6856;51.460;7.158;2023-01-24T12:48:28;102510.00;;;7.30
13570;BMP180;6856;51.460;7.158;2023-01-24T12:51:16;102513.00;;;7.30
13570;BMP180;6856;51.460;7.158;2023-01-24T12:54:02;102500.00;;;7.30
13570;BMP180;6856;51.460;7.158;2023-01-24T12:56:48;102497.00;;;7.30
13570;BMP180;6856;51.460;7.158;2023-01-24T12:59:26;102493.00;;;7.30
13570;BMP180;6856;51.460;7.158;2023-01-24T13:02:40;102496.00;;;7.30
13570;BMP180;6856;51.460;7.158;2023-01-24T13:05:33;102498.00;;;7.30
13570;BMP180;6856;51.460;7.158;2023-01-24T13:08:23;102496.00;;;7.30
13570;BMP180;6856;51.460;7.158;2023-01-24T13:11:18;102479.00;;;7.20
13570;BMP180;6856;51.460;7.158;2023-01-24T13:14:06;102488.00;;;7.20
13570;BMP180;6856;51.460;7.158;2023-01-24T13:17:24;102482.00;;;7.20
13570;BMP180;6856;51.460;7.158;2023-01-24T13:23:27;102491.00;;;7.30
13570;BMP180;6856;51.460;7.158;2023-01-24T13:26:44;102479.00;;;7.30
13570;BMP180;6856;51.460;7.158;2023-01-24T13:29:51;102485.00;;;7.30
13570;BMP180;6856;51.460;7.158;2023-01-24T13:32:32;102485.00;;;7.30
13570;BMP180;6856;51.460;7.158;2023-01-24T13:35:17;102488.00;;;7.30
13570;BMP180;6856;51.460;7.158;2023-01-24T13:38:03;102482.00;;;7.30
13570;BMP180;6856;51.460;7.158;2023-01-24T13:40:38;102486.00;;;7.30
13570;BMP180;6856;51.460;7.158;2023-01-24T13:50:18;102479.00;;;7.30
13570;BMP180;6856;51.460;7.158;2023-01-24T13:52:54;102478.00;;;7.30
13570;BMP180;6856;51.460;7.158;2023-01-24T13:56:02;102484.00;;;7.30
13570;BMP180;6856;51.460;7.158;2023-01-24T13:58:36;102484.00;;;7.30
13570;BMP180;6856;51.460;7.158;2023-01-24T14:01:16;102493.00;;;7.30
13570;BMP180;6856;51.460;7.158;2023-01-24T14:03:56;102490.00;;;7.30
13570;BMP180;6856;51.460;7.158;2023-01-24T14:06:42;102489.00;;;7.30
13570;BMP180;6856;51.460;7.158;2023-01-24T14:09:21;102494.00;;;7.30
13570;BMP180;6856;51.460;7.158;2023-01-24T14:11:59;102494.00;;;7.30
13570;BMP180;6856;51.460;7.158;2023-01-24T14:15:05;102494.00;;;7.30
13570;BMP180;6856;51.460;7.158;2023-01-24T14:17:57;102501.00;;;7.30
13570;BMP180;6856;51.460;7.158;2023-01-24T14:20:42;102505.00;;;7.30
13570;BMP180;6856;51.460;7.158;2023-01-24T14:23:22;102511.00;;;7.20
13570;BMP180;6856;51.460;7.158;2023-01-24T14:26:01;102506.00;;;7.20
13570;BMP180;6856;51.460;7.158;2023-01-24T14:28:42;102513.00;;;7.20
13570;BMP180;6856;51.460;7.158;2023-01-24T14:31:24;102511.00;;;7.20
13570;BMP180;6856;51.460;7.158;2023-01-24T14:34:07;102518.00;;;7.20
13570;BMP180;6856;51.460;7.158;2023-01-24T14:36:47;102511.00;;;7.20
13570;BMP180;6856;51.460;7.158;2023-01-24T14:39:26;102509.00;;;7.20
13570;BMP180;6856;51.460;7.158;2023-01-24T14:42:02;102520.00;;;7.20
13570;BMP180;6856;51.460;7.158;2023-01-24T14:44:38;102510.00;;;7.20
13570;BMP180;6856;51.460;7.158;2023-01-24T14:47:19;102491.00;;;7.10
13570;BMP180;6856;51.460;7.158;2023-01-24T14:49:56;102515.00;;;7.10
13570;BMP180;6856;51.460;7.158;2023-01-24T14:52:32;102513.00;;;7.10
13570;BMP180;6856;51.460;7.158;2023-01-24T14:55:35;102511.00;;;7.10
13570;BMP180;6856;51.460;7.158;2023-01-24T14:58:16;102520.00;;;7.10
13570;BMP180;6856;51.460;7.158;2023-01-24T15:00:55;102524.00;;;7.10
13570;BMP180;6856;51.460;7.158;2023-01-24T15:03:32;102519.00;;;7.00
13570;BMP180;6856;51.460;7.158;2023-01-24T15:06:18;102525.00;;;7.10
13570;BMP180;6856;51.460;7.158;2023-01-24T15:08:56;102516.00;;;7.00
13570;BMP180;6856;51.460;7.158;2023-01-24T15:11:35;102522.00;;;7.00
13570;BMP180;6856;51.460;7.158;2023-01-24T15:14:19;102519.00;;;7.00
13570;BMP180;6856;51.460;7.158;2023-01-24T15:16:54;102513.00;;;6.90
13570;BMP180;6856;51.460;7.158;2023-01-24T15:19:32;102511.00;;;6.90
13570;BMP180;6856;51.460;7.158;2023-01-24T15:22:20;102516.00;;;6.90
13570;BMP180;6856;51.460;7.158;2023-01-24T15:24:58;102520.00;;;6.90
13570;BMP180;6856;51.460;7.158;2023-01-24T15:27:41;102524.00;;;6.90
13570;BMP180;6856;51.460;7.158;2023-01-24T15:30:19;102518.00;;;6.90
13570;BMP180;6856;51.460;7.158;2023-01-24T15:33:00;102522.00;;;6.90
13570;BMP180;6856;51.460;7.158;2023-01-24T15:35:38;102513.00;;;6.90
13570;BMP180;6856;51.460;7.158;2023-01-24T15:38:30;102517.00;;;6.90
13570;BMP180;6856;51.460;7.158;2023-01-24T15:41:19;102507.00;;;6.90
13570;BMP180;6856;51.460;7.158;2023-01-24T15:44:05;102512.00;;;6.90
13570;BMP180;6856;51.460;7.158;2023-01-24T15:46:41;102510.00;;;6.80
13570;BMP180;6856;51.460;7.158;2023-01-24T15:49:58;102512.00;;;6.80
13570;BMP180;6856;51.460;7.158;2023-01-24T15:53:21;102506.00;;;6.80
13570;BMP180;6856;51.460;7.158;2023-01-24T15:56:01;102509.00;;;6.70
13570;BMP180;6856;51.460;7.158;2023-01-24T15:58:36;102518.00;;;6.70
13570;BMP180;6856;51.460;7.158;2023-01-24T16:01:12;102520.00;;;6.70